sensor_id;sensor_type;location;lat;lon;timestamp;pressure;altitude;pressure_sealevel;temperature;humidity
64675;BME280;51090;51.512;11.332;2022-10-16T00:00:56;99007.13;;;17.06;100.00
64675;BME280;51090;51.512;11.332;2022-10-16T00:03:22;99007.91;;;17.07;100.00
64675;BME280;51090;51.512;11.332;2022-10-16T00:05:48;99007.34;;;17.05;100.00
64675;BME280;51090;51.512;11.332;2022-10-16T00:08:14;99015.16;;;17.06;100.00
64675;BME280;51090;51.512;11.332;2022-10-16T00:10:40;99007.25;;;17.00;100.00
64675;BME280;51090;51.512;11.332;2022-10-16T00:13:06;99017.63;;;16.96;100.00
64675;BME280;51090;51.512;11.332;2022-10-16T00:15:34;99002.16;;;16.86;100.00
64675;BME280;51090;51.512;11.332;2022-10-16T00:18:02;99020.03;;;16.97;100.00
64675;BME280;51090;51.512;11.332;2022-10-16T00:20:28;99019.34;;;17.02;100.00
64675;BME280;51090;51.512;11.332;2022-10-16T00:22:54;99024.81;;;17.07;100.00
64675;BME280;51090;51.512;11.332;2022-10-16T00:25:19;99011.28;;;17.14;100.00
64675;BME280;51090;51.512;11.332;2022-10-16T00:27:45;99009.16;;;17.16;100.00
64675;BME280;51090;51.512;11.332;2022-10-16T00:30:11;99028.94;;;17.27;100.00
64675;BME280;51090;51.512;11.332;2022-10-16T00:32:36;99028.78;;;17.33;100.00
64675;BME280;51090;51.512;11.332;2022-10-16T00:35:02;99026.22;;;17.38;100.00
64675;BME280;51090;51.512;11.332;2022-10-16T00:37:29;99017.25;;;17.33;100.00
64675;BME280;51090;51.512;11.332;2022-10-16T00:39:54;99025.06;;;17.34;100.00
64675;BME280;51090;51.512;11.332;2022-10-16T00:42:20;99025.00;;;17.46;100.00
64675;BME280;51090;51.512;11.332;2022-10-16T00:44:51;99012.53;;;17.23;100.00
64675;BME280;51090;51.512;11.332;2022-10-16T00:47:44;99023.38;;;17.16;100.00
64675;BME280;51090;51.512;11.332;2022-10-16T00:52:49;99005.03;;;16.96;100.00
64675;BME280;51090;51.512;11.332;2022-10-16T00:55:15;99008.69;;;16.90;100.00
64675;BME280;51090;51.512;11.332;2022-10-16T00:57:41;99019.19;;;16.80;100.00
64675;BME280;51090;51.512;11.332;2022-10-16T01:00:12;99029.38;;;16.71;100.00
64675;BME280;51090;51.512;11.332;2022-10-16T01:02:38;99024.72;;;16.67;100.00
64675;BME280;51090;51.512;11.332;2022-10-16T01:05:04;99038.38;;;16.65;100.00
64675;BME280;51090;51.512;11.332;2022-10-16T01:07:39;99040.78;;;16.67;100.00
64675;BME280;51090;51.512;11.332;2022-10-16T01:10:21;99038.69;;;16.69;100.00
64675;BME280;51090;51.512;11.332;2022-10-16T01:15:56;99044.41;;;16.84;100.00
64675;BME280;51090;51.512;11.332;2022-10-16T01:18:43;99038.94;;;16.91;100.00
64675;BME280;51090;51.512;11.332;2022-10-16T01:21:15;99046.03;;;16.97;100.00
64675;BME280;51090;51.512;11.332;2022-10-16T01:24:08;99064.97;;;17.07;100.00
64675;BME280;51090;51.512;11.332;2022-10-16T01:32:20;99053.09;;;17.15;100.00
64675;BME280;51090;51.512;11.332;2022-10-16T01:34:52;99046.22;;;17.07;100.00
64675;BME280;51090;51.512;11.332;2022-10-16T01:37:27;99033.00;;;16.89;100.00
64675;BME280;51090;51.512;11.332;2022-10-16T01:39:55;99027.22;;;16.80;100.00
64675;BME280;51090;51.512;11.332;2022-10-16T01:42:25;99027.50;;;16.72;100.00
64675;BME280;51090;51.512;11.332;2022-10-16T01:44:53;99025.78;;;16.66;100.00
64675;BME280;51090;51.512;11.332;2022-10-16T01:47:22;99033.81;;;16.66;100.00
64675;BME280;51090;51.512;11.332;2022-10-16T01:49:49;99033.81;;;16.66;100.00
64675;BME280;51090;51.512;11.332;2022-10-16T01:52:18;99032.75;;;16.67;100.00
64675;BME280;51090;51.512;11.332;2022-10-16T01:54:46;99039.50;;;16.69;100.00
64675;BME280;51090;51.512;11.332;2022-10-16T01:57:13;99042.44;;;16.68;100.00
64675;BME280;51090;51.512;11.332;2022-10-16T01:59:43;99051.16;;;16.63;100.00
64675;BME280;51090;51.512;11.332;2022-10-16T02:02:10;99045.81;;;16.63;100.00
64675;BME280;51090;51.512;11.332;2022-10-16T02:04:48;99056.72;;;16.62;100.00
64675;BME280;51090;51.512;11.332;2022-10-16T02:07:16;99053.50;;;16.60;100.00
64675;BME280;51090;51.512;11.332;2022-10-16T02:09:42;99051.25;;;16.57;100.00
64675;BME280;51090;51.512;11.332;2022-10-16T02:12:33;99066.16;;;16.64;100.00
64675;BME280;51090;51.512;11.332;2022-10-16T02:14:58;99051.75;;;16.65;100.00
64675;BME280;51090;51.512;11.332;2022-10-16T02:17:24;99057.09;;;16.65;100.00
64675;BME280;51090;51.512;11.332;2022-10-16T02:19:51;99047.09;;;16.61;100.00
64675;BME280;51090;51.512;11.332;2022-10-16T02:22:25;99055.00;;;16.67;100.00
64675;BME280;51090;51.512;11.332;2022-10-16T02:30:23;99052.09;;;16.69;100.00
64675;BME280;51090;51.512;11.332;2022-10-16T02:32:51;99054.66;;;16.75;100.00
64675;BME280;51090;51.512;11.332;2022-10-16T02:35:19;99068.84;;;16.76;100.00
64675;BME280;51090;51.512;11.332;2022-10-16T02:37:46;99062.31;;;16.72;100.00
64675;BME280;51090;51.512;11.332;2022-10-16T02:40:13;99059.75;;;16.77;100.00
64675;BME280;51090;51.512;11.332;2022-10-16T02:42:40;99057.06;;;16.77;100.00
64675;BME280;51090;51.512;11.332;2022-10-16T02:45:08;99069.47;;;16.78;100.00
64675;BME280;51090;51.512;11.332;2022-10-16T02:47:34;99060.00;;;16.75;100.00
64675;BME280;51090;51.512;11.332;2022-10-16T02:50:00;99070.94;;;16.74;100.00
64675;BME280;51090;51.512;11.332;2022-10-16T02:52:25;99069.31;;;16.61;100.00
64675;BME280;51090;51.512;11.332;2022-10-16T02:54:51;99075.59;;;16.67;100.00
64675;BME280;51090;51.512;11.332;2022-10-16T02:57:17;99065.59;;;16.62;100.00
64675;BME280;51090;51.512;11.332;2022-10-16T02:59:43;99061.53;;;16.60;100.00
64675;BME280;51090;51.512;11.332;2022-10-16T03:02:09;99079.09;;;16.67;100.00
64675;BME280;51090;51.512;11.332;2022-10-16T03:04:35;99072.91;;;16.67;100.00
64675;BME280;51090;51.512;11.332;2022-10-16T03:07:01;99077.25;;;16.68;100.00
64675;BME280;51090;51.512;11.332;2022-10-16T03:09:27;99079.31;;;16.66;100.00
64675;BME280;51090;51.512;11.332;2022-10-16T03:11:52;99062.22;;;16.55;100.00
64675;BME280;51090;51.512;11.332;2022-10-16T03:14:18;99070.97;;;16.62;100.00
64675;BME280;51090;51.512;11.332;2022-10-16T03:16:44;99065.81;;;16.61;100.00
64675;BME280;51090;51.512;11.332;2022-10-16T03:19:09;99070.38;;;16.60;100.00
64675;BME280;51090;51.512;11.332;2022-10-16T03:21:35;99076.75;;;16.59;100.00
64675;BME280;51090;51.512;11.332;2022-10-16T03:24:01;99075.34;;;16.57;100.00
64675;BME280;51090;51.512;11.332;2022-10-16T03:26:26;99070.00;;;16.57;100.00
64675;BME280;51090;51.512;11.332;2022-10-16T03:28:52;99064.09;;;16.54;100.00
64675;BME280;51090;51.512;11.332;2022-10-16T03:31:17;99058.63;;;16.49;100.00
64675;BME280;51090;51.512;11.332;2022-10-16T03:33:43;99075.72;;;16.48;100.00
64675;BME280;51090;51.512;11.332;2022-10-16T03:36:09;99076.75;;;16.47;100.00
64675;BME280;51090;51.512;11.332;2022-10-16T03:38:34;99082.94;;;16.48;100.00
64675;BME280;51090;51.512;11.332;2022-10-16T03:41:00;99091.88;;;16.53;100.00
64675;BME280;51090;51.512;11.332;2022-10-16T03:43:26;99092.47;;;16.55;100.00
64675;BME280;51090;51.512;11.332;2022-10-16T03:45:51;99086.31;;;16.55;100.00
64675;BME280;51090;51.512;11.332;2022-10-16T03:48:18;99085.72;;;16.53;100.00
64675;BME280;51090;51.512;11.332;2022-10-16T03:50:43;99084.09;;;16.52;100.00
64675;BME280;51090;51.512;11.332;2022-10-16T03:53:09;99080.03;;;16.49;100.00
64675;BME280;51090;51.512;11.332;2022-10-16T03:55:35;99082.59;;;16.44;100.00
64675;BME280;51090;51.512;11.332;2022-10-16T03:58:01;99083.88;;;16.42;100.00
64675;BME280;51090;51.512;11.332;2022-10-16T04:00:27;99092.34;;;16.39;100.00
64675;BME280;51090;51.512;11.332;2022-10-16T04:02:52;99072.06;;;16.31;100.00
64675;BME280;51090;51.512;11.332;2022-10-16T04:05:18;99077.44;;;16.31;100.00
64675;BME280;51090;51.512;11.332;2022-10-16T04:07:44;99087.22;;;16.49;100.00
64675;BME280;51090;51.512;11.332;2022-10-16T04:10:09;99095.63;;;16.52;100.00
64675;BME280;51090;51.512;11.332;2022-10-16T04:12:35;99096.91;;;16.50;100.00
64675;BME280;51090;51.512;11.332;2022-10-16T04:15:01;99118.44;;;16.55;100.00
64675;BME280;51090;51.512;11.332;2022-10-16T04:17:27;99129.00;;;16.62;100.00
64675;BME280;51090;51.512;11.332;2022-10-16T04:19:53;99142.50;;;16.67;100.00
64675;BME280;51090;51.512;11.332;2022-10-16T04:22:19;99127.41;;;16.72;100.00
64675;BME280;51090;51.512;11.332;2022-10-16T04:24:44;99133.72;;;16.78;100.00
64675;BME280;51090;51.512;11.332;2022-10-16T04:27:10;99133.03;;;16.83;100.00
64675;BME280;51090;51.512;11.332;2022-10-16T04:29:35;99144.31;;;16.85;100.00
64675;BME280;51090;51.512;11.332;2022-10-16T04:32:01;99140.22;;;16.82;100.00
64675;BME280;51090;51.512;11.332;2022-10-16T04:34:27;99140.56;;;16.74;100.00
64675;BME280;51090;51.512;11.332;2022-10-16T04:36:52;99143.56;;;16.66;100.00
64675;BME280;51090;51.512;11.332;2022-10-16T04:39:18;99149.75;;;16.54;100.00
64675;BME280;51090;51.512;11.332;2022-10-16T04:41:44;99156.81;;;16.49;100.00
64675;BME280;51090;51.512;11.332;2022-10-16T04:44:09;99147.38;;;16.46;100.00
64675;BME280;51090;51.512;11.332;2022-10-16T04:46:35;99154.59;;;16.46;100.00
64675;BME280;51090;51.512;11.332;2022-10-16T04:49:00;99154.25;;;16.42;100.00
64675;BME280;51090;51.512;11.332;2022-10-16T04:51:26;99147.13;;;16.36;100.00
64675;BME280;51090;51.512;11.332;2022-10-16T04:53:53;99163.78;;;16.38;100.00
64675;BME280;51090;51.512;11.332;2022-10-16T04:56:20;99150.63;;;16.37;100.00
64675;BME280;51090;51.512;11.332;2022-10-16T04:58:46;99151.00;;;16.40;100.00
64675;BME280;51090;51.512;11.332;2022-10-16T05:01:12;99150.78;;;16.42;100.00
64675;BME280;51090;51.512;11.332;2022-10-16T05:03:38;99165.81;;;16.54;100.00
64675;BME280;51090;51.512;11.332;2022-10-16T05:06:07;99163.56;;;16.51;100.00
64675;BME280;51090;51.512;11.332;2022-10-16T05:08:33;99167.50;;;16.49;100.00
64675;BME280;51090;51.512;11.332;2022-10-16T05:10:58;99165.91;;;16.48;100.00
64675;BME280;51090;51.512;11.332;2022-10-16T05:13:24;99167.38;;;16.44;100.00
64675;BME280;51090;51.512;11.332;2022-10-16T05:15:49;99162.75;;;16.39;100.00
64675;BME280;51090;51.512;11.332;2022-10-16T05:18:15;99167.19;;;16.15;100.00
64675;BME280;51090;51.512;11.332;2022-10-16T05:20:41;99169.53;;;16.11;100.00
64675;BME280;51090;51.512;11.332;2022-10-16T05:23:07;99165.53;;;16.02;100.00
64675;BME280;51090;51.512;11.332;2022-10-16T05:25:36;99170.59;;;15.92;100.00
64675;BME280;51090;51.512;11.332;2022-10-16T05:28:02;99182.34;;;15.91;100.00
64675;BME280;51090;51.512;11.332;2022-10-16T05:30:28;99188.56;;;15.85;100.00
64675;BME280;51090;51.512;11.332;2022-10-16T05:32:53;99178.34;;;15.82;100.00
64675;BME280;51090;51.512;11.332;2022-10-16T05:35:19;99172.63;;;15.78;100.00
64675;BME280;51090;51.512;11.332;2022-10-16T05:37:46;99182.06;;;15.81;100.00
64675;BME280;51090;51.512;11.332;2022-10-16T05:40:12;99181.63;;;15.84;100.00
64675;BME280;51090;51.512;11.332;2022-10-16T05:42:38;99175.00;;;15.86;100.00
64675;BME280;51090;51.512;11.332;2022-10-16T05:45:05;99189.31;;;15.92;100.00
64675;BME280;51090;51.512;11.332;2022-10-16T05:47:31;99194.81;;;15.97;100.00
64675;BME280;51090;51.512;11.332;2022-10-16T05:49:57;99185.31;;;16.01;100.00
64675;BME280;51090;51.512;11.332;2022-10-16T05:52:23;99177.16;;;16.08;100.00
64675;BME280;51090;51.512;11.332;2022-10-16T05:54:48;99186.38;;;16.12;100.00
64675;BME280;51090;51.512;11.332;2022-10-16T05:57:14;99179.91;;;16.20;100.00
64675;BME280;51090;51.512;11.332;2022-10-16T05:59:39;99180.50;;;16.22;100.00
64675;BME280;51090;51.512;11.332;2022-10-16T06:02:05;99185.97;;;16.27;100.00
64675;BME280;51090;51.512;11.332;2022-10-16T06:04:31;99192.94;;;16.28;100.00
64675;BME280;51090;51.512;11.332;2022-10-16T06:07:00;99178.97;;;16.26;100.00
64675;BME280;51090;51.512;11.332;2022-10-16T06:09:28;99190.06;;;16.29;100.00
64675;BME280;51090;51.512;11.332;2022-10-16T06:11:54;99197.03;;;16.30;100.00
64675;BME280;51090;51.512;11.332;2022-10-16T06:14:19;99201.09;;;16.33;100.00
64675;BME280;51090;51.512;11.332;2022-10-16T06:16:45;99197.41;;;16.34;100.00
64675;BME280;51090;51.512;11.332;2022-10-16T06:19:11;99180.41;;;16.40;100.00
64675;BME280;51090;51.512;11.332;2022-10-16T06:21:36;99176.13;;;16.39;100.00
64675;BME280;51090;51.512;11.332;2022-10-16T06:24:02;99181.22;;;16.41;100.00
64675;BME280;51090;51.512;11.332;2022-10-16T06:26:29;99178.69;;;16.46;100.00
64675;BME280;51090;51.512;11.332;2022-10-16T06:28:56;99140.06;;;16.42;100.00
64675;BME280;51090;51.512;11.332;2022-10-16T06:31:23;99152.53;;;16.60;100.00
64675;BME280;51090;51.512;11.332;2022-10-16T06:33:53;99171.03;;;16.61;100.00
64675;BME280;51090;51.512;11.332;2022-10-16T06:36:19;99155.34;;;16.65;100.00
64675;BME280;51090;51.512;11.332;2022-10-16T06:38:44;99155.91;;;16.67;100.00
64675;BME280;51090;51.512;11.332;2022-10-16T06:41:15;99139.03;;;16.54;100.00
64675;BME280;51090;51.512;11.332;2022-10-16T06:43:41;99180.34;;;16.59;100.00
64675;BME280;51090;51.512;11.332;2022-10-16T06:46:09;99211.56;;;16.65;100.00
64675;BME280;51090;51.512;11.332;2022-10-16T06:48:36;99219.34;;;16.66;100.00
64675;BME280;51090;51.512;11.332;2022-10-16T06:53:33;99241.22;;;16.93;100.00
64675;BME280;51090;51.512;11.332;2022-10-16T06:56:09;99237.59;;;17.00;100.00
64675;BME280;51090;51.512;11.332;2022-10-16T06:58:36;99242.25;;;17.04;100.00
64675;BME280;51090;51.512;11.332;2022-10-16T07:01:02;99247.75;;;17.09;100.00
64675;BME280;51090;51.512;11.332;2022-10-16T07:03:27;99241.31;;;17.10;100.00
64675;BME280;51090;51.512;11.332;2022-10-16T07:05:53;99239.34;;;17.17;100.00
64675;BME280;51090;51.512;11.332;2022-10-16T07:08:19;99249.97;;;17.24;100.00
64675;BME280;51090;51.512;11.332;2022-10-16T07:10:44;99262.75;;;17.34;100.00
64675;BME280;51090;51.512;11.332;2022-10-16T07:13:10;99272.56;;;17.40;100.00
64675;BME280;51090;51.512;11.332;2022-10-16T07:15:38;99275.13;;;17.47;100.00
64675;BME280;51090;51.512;11.332;2022-10-16T07:18:04;99284.22;;;17.57;100.00
64675;BME280;51090;51.512;11.332;2022-10-16T07:20:29;99288.63;;;17.63;100.00
64675;BME280;51090;51.512;11.332;2022-10-16T07:22:55;99294.13;;;17.69;100.00
64675;BME280;51090;51.512;11.332;2022-10-16T07:25:21;99294.97;;;17.81;100.00
64675;BME280;51090;51.512;11.332;2022-10-16T07:27:46;99285.13;;;17.98;100.00
64675;BME280;51090;51.512;11.332;2022-10-16T07:30:12;99280.50;;;18.22;100.00
64675;BME280;51090;51.512;11.332;2022-10-16T07:32:37;99282.53;;;18.44;100.00
64675;BME280;51090;51.512;11.332;2022-10-16T07:35:04;99292.50;;;18.60;100.00
64675;BME280;51090;51.512;11.332;2022-10-16T07:37:30;99301.19;;;18.67;100.00
64675;BME280;51090;51.512;11.332;2022-10-16T07:39:55;99305.25;;;18.82;100.00
64675;BME280;51090;51.512;11.332;2022-10-16T07:42:21;99306.19;;;19.04;100.00
64675;BME280;51090;51.512;11.332;2022-10-16T07:44:47;99311.16;;;19.12;100.00
64675;BME280;51090;51.512;11.332;2022-10-16T07:47:12;99317.53;;;19.06;100.00
64675;BME280;51090;51.512;11.332;2022-10-16T07:49:38;99336.41;;;19.11;100.00
64675;BME280;51090;51.512;11.332;2022-10-16T07:52:03;99334.53;;;19.12;100.00
64675;BME280;51090;51.512;11.332;2022-10-16T07:54:29;99332.81;;;19.23;100.00
64675;BME280;51090;51.512;11.332;2022-10-16T07:56:55;99340.81;;;19.34;100.00
64675;BME280;51090;51.512;11.332;2022-10-16T07:59:20;99351.97;;;19.43;100.00
64675;BME280;51090;51.512;11.332;2022-10-16T08:01:46;99351.75;;;19.45;100.00
64675;BME280;51090;51.512;11.332;2022-10-16T08:04:12;99356.94;;;19.51;100.00
64675;BME280;51090;51.512;11.332;2022-10-16T08:06:39;99345.75;;;19.59;100.00
64675;BME280;51090;51.512;11.332;2022-10-16T08:09:06;99335.09;;;19.65;100.00
64675;BME280;51090;51.512;11.332;2022-10-16T08:11:32;99347.59;;;19.71;100.00
64675;BME280;51090;51.512;11.332;2022-10-16T08:13:58;99344.06;;;19.70;100.00
64675;BME280;51090;51.512;11.332;2022-10-16T08:16:23;99340.63;;;19.75;100.00
64675;BME280;51090;51.512;11.332;2022-10-16T08:18:49;99326.53;;;19.85;100.00
64675;BME280;51090;51.512;11.332;2022-10-16T08:21:19;99345.00;;;19.98;100.00
64675;BME280;51090;51.512;11.332;2022-10-16T08:23:45;99353.22;;;20.08;100.00
64675;BME280;51090;51.512;11.332;2022-10-16T08:26:12;99349.47;;;20.09;100.00
64675;BME280;51090;51.512;11.332;2022-10-16T08:28:38;99346.50;;;20.11;100.00
64675;BME280;51090;51.512;11.332;2022-10-16T08:31:14;99355.47;;;20.16;100.00
64675;BME280;51090;51.512;11.332;2022-10-16T08:33:41;99362.72;;;20.16;100.00
64675;BME280;51090;51.512;11.332;2022-10-16T08:36:08;99361.06;;;20.10;100.00
64675;BME280;51090;51.512;11.332;2022-10-16T08:38:34;99374.03;;;20.35;100.00
64675;BME280;51090;51.512;11.332;2022-10-16T08:49:21;99378.88;;;20.16;100.00
64675;BME280;51090;51.512;11.332;2022-10-16T08:51:46;99373.00;;;20.19;100.00
64675;BME280;51090;51.512;11.332;2022-10-16T08:54:37;99372.66;;;20.32;100.00
64675;BME280;51090;51.512;11.332;2022-10-16T08:57:16;99371.44;;;20.23;100.00
64675;BME280;51090;51.512;11.332;2022-10-16T08:59:42;99393.69;;;20.35;100.00
64675;BME280;51090;51.512;11.332;2022-10-16T09:02:37;99391.94;;;20.46;100.00
64675;BME280;51090;51.512;11.332;2022-10-16T09:18:41;99428.66;;;20.13;100.00
64675;BME280;51090;51.512;11.332;2022-10-16T09:21:31;99416.78;;;19.92;100.00
64675;BME280;51090;51.512;11.332;2022-10-16T09:24:06;99423.63;;;19.83;100.00
64675;BME280;51090;51.512;11.332;2022-10-16T09:26:34;99422.66;;;19.89;100.00
64675;BME280;51090;51.512;11.332;2022-10-16T09:29:00;99423.63;;;20.00;100.00
64675;BME280;51090;51.512;11.332;2022-10-16T09:31:26;99411.78;;;20.01;100.00
64675;BME280;51090;51.512;11.332;2022-10-16T09:33:57;99433.00;;;20.14;100.00
64675;BME280;51090;51.512;11.332;2022-10-16T09:36:23;99415.84;;;20.04;100.00
64675;BME280;51090;51.512;11.332;2022-10-16T09:39:05;99422.25;;;19.97;100.00
64675;BME280;51090;51.512;11.332;2022-10-16T09:41:34;99431.78;;;19.88;100.00
64675;BME280;51090;51.512;11.332;2022-10-16T09:44:01;99432.34;;;19.90;100.00
64675;BME280;51090;51.512;11.332;2022-10-16T09:46:33;99436.94;;;19.90;100.00
64675;BME280;51090;51.512;11.332;2022-10-16T09:49:02;99440.25;;;19.80;100.00
64675;BME280;51090;51.512;11.332;2022-10-16T09:54:00;99440.00;;;19.98;100.00
64675;BME280;51090;51.512;11.332;2022-10-16T09:56:31;99443.13;;;20.07;100.00
64675;BME280;51090;51.512;11.332;2022-10-16T09:59:22;99458.41;;;20.23;100.00
64675;BME280;51090;51.512;11.332;2022-10-16T10:01:56;99453.97;;;20.34;100.00
64675;BME280;51090;51.512;11.332;2022-10-16T10:04:24;99442.75;;;20.37;100.00
64675;BME280;51090;51.512;11.332;2022-10-16T10:06:55;99454.13;;;20.44;100.00
64675;BME280;51090;51.512;11.332;2022-10-16T10:09:27;99468.00;;;20.53;100.00
64675;BME280;51090;51.512;11.332;2022-10-16T10:12:02;99469.03;;;20.69;100.00
64675;BME280;51090;51.512;11.332;2022-10-16T10:14:38;99472.44;;;21.08;100.00
64675;BME280;51090;51.512;11.332;2022-10-16T10:22:27;99475.47;;;21.66;100.00
64675;BME280;51090;51.512;11.332;2022-10-16T10:28:06;99471.31;;;21.53;100.00
64675;BME280;51090;51.512;11.332;2022-10-16T10:41:25;99484.16;;;21.41;100.00
64675;BME280;51090;51.512;11.332;2022-10-16T11:00:21;99478.56;;;21.48;100.00
64675;BME280;51090;51.512;11.332;2022-10-16T11:03:40;99468.97;;;21.62;100.00
64675;BME280;51090;51.512;11.332;2022-10-16T11:06:17;99471.03;;;21.55;100.00
64675;BME280;51090;51.512;11.332;2022-10-16T11:08:49;99471.38;;;21.59;100.00
64675;BME280;51090;51.512;11.332;2022-10-16T11:11:19;99462.50;;;21.36;100.00
64675;BME280;51090;51.512;11.332;2022-10-16T11:13:56;99471.56;;;21.25;100.00
64675;BME280;51090;51.512;11.332;2022-10-16T11:16:29;99478.16;;;21.12;100.00
64675;BME280;51090;51.512;11.332;2022-10-16T11:19:37;99487.81;;;21.08;100.00
64675;BME280;51090;51.512;11.332;2022-10-16T11:22:23;99487.13;;;20.96;100.00
64675;BME280;51090;51.512;11.332;2022-10-16T11:25:18;99483.75;;;21.05;100.00
64675;BME280;51090;51.512;11.332;2022-10-16T11:30:25;99488.59;;;21.58;100.00
64675;BME280;51090;51.512;11.332;2022-10-16T11:35:38;99490.56;;;21.94;100.00
64675;BME280;51090;51.512;11.332;2022-10-16T11:40:54;99483.94;;;21.80;100.00
64675;BME280;51090;51.512;11.332;2022-10-16T11:43:37;99483.72;;;21.82;100.00
64675;BME280;51090;51.512;11.332;2022-10-16T11:46:16;99492.53;;;21.72;100.00
64675;BME280;51090;51.512;11.332;2022-10-16T11:48:54;99490.38;;;21.74;100.00
64675;BME280;51090;51.512;11.332;2022-10-16T11:51:33;99497.69;;;21.73;100.00
64675;BME280;51090;51.512;11.332;2022-10-16T11:56:57;99480.66;;;21.73;100.00
64675;BME280;51090;51.512;11.332;2022-10-16T12:02:33;99492.56;;;21.77;100.00
64675;BME280;51090;51.512;11.332;2022-10-16T12:08:15;99473.44;;;21.51;99.47
64675;BME280;51090;51.512;11.332;2022-10-16T12:10:44;99474.78;;;21.49;100.00
64675;BME280;51090;51.512;11.332;2022-10-16T12:13:35;99469.34;;;21.44;100.00
64675;BME280;51090;51.512;11.332;2022-10-16T12:18:37;99473.22;;;21.53;99.42
64675;BME280;51090;51.512;11.332;2022-10-16T12:21:03;99489.88;;;21.50;100.00
64675;BME280;51090;51.512;11.332;2022-10-16T12:24:18;99494.69;;;21.43;99.80
64675;BME280;51090;51.512;11.332;2022-10-16T12:26:25;99488.16;;;21.17;100.00
64675;BME280;51090;51.512;11.332;2022-10-16T12:28:51;99488.50;;;21.20;100.00
64675;BME280;51090;51.512;11.332;2022-10-16T12:31:17;99486.03;;;21.19;100.00
64675;BME280;51090;51.512;11.332;2022-10-16T12:33:57;99483.38;;;21.24;100.00
64675;BME280;51090;51.512;11.332;2022-10-16T12:36:33;99493.13;;;21.25;100.00
64675;BME280;51090;51.512;11.332;2022-10-16T12:39:00;99482.66;;;21.06;94.10
64675;BME280;51090;51.512;11.332;2022-10-16T12:41:35;99479.84;;;21.18;96.58
64675;BME280;51090;51.512;11.332;2022-10-16T12:44:05;99479.25;;;21.16;100.00
64675;BME280;51090;51.512;11.332;2022-10-16T12:51:54;99453.53;;;21.30;97.59
64675;BME280;51090;51.512;11.332;2022-10-16T12:54:21;99474.09;;;21.37;95.91
64675;BME280;51090;51.512;11.332;2022-10-16T13:12:52;99501.28;;;21.57;83.16
64675;BME280;51090;51.512;11.332;2022-10-16T13:15:51;99485.22;;;21.40;84.78
64675;BME280;51090;51.512;11.332;2022-10-16T13:18:31;99497.63;;;21.41;84.64
64675;BME280;51090;51.512;11.332;2022-10-16T13:28:41;99511.06;;;21.63;93.28
64675;BME280;51090;51.512;11.332;2022-10-16T13:31:36;99527.56;;;21.67;86.68
64675;BME280;51090;51.512;11.332;2022-10-16T13:34:03;99515.19;;;21.71;92.86
64675;BME280;51090;51.512;11.332;2022-10-16T13:36:33;99527.91;;;21.75;92.52
64675;BME280;51090;51.512;11.332;2022-10-16T13:39:06;99520.66;;;21.76;87.64
64675;BME280;51090;51.512;11.332;2022-10-16T13:41:32;99519.56;;;21.77;89.20
64675;BME280;51090;51.512;11.332;2022-10-16T13:43:57;99530.06;;;21.73;85.40
64675;BME280;51090;51.512;11.332;2022-10-16T13:46:24;99527.59;;;21.72;87.58
64675;BME280;51090;51.512;11.332;2022-10-16T13:49:04;99541.81;;;21.62;86.29
64675;BME280;51090;51.512;11.332;2022-10-16T13:51:31;99536.03;;;21.48;95.05
64675;BME280;51090;51.512;11.332;2022-10-16T13:53:57;99544.41;;;21.52;96.74
64675;BME280;51090;51.512;11.332;2022-10-16T13:56:26;99544.31;;;21.42;98.20
64675;BME280;51090;51.512;11.332;2022-10-16T14:01:50;99535.09;;;21.16;100.00
64675;BME280;51090;51.512;11.332;2022-10-16T14:04:17;99550.13;;;21.12;97.74
64675;BME280;51090;51.512;11.332;2022-10-16T14:06:45;99550.31;;;21.05;99.91
64675;BME280;51090;51.512;11.332;2022-10-16T14:09:24;99560.38;;;21.09;100.00
64675;BME280;51090;51.512;11.332;2022-10-16T14:11:54;99554.59;;;21.01;96.68
64675;BME280;51090;51.512;11.332;2022-10-16T14:14:21;99541.84;;;21.18;99.85
64675;BME280;51090;51.512;11.332;2022-10-16T14:16:47;99527.84;;;21.21;99.44
64675;BME280;51090;51.512;11.332;2022-10-16T14:19:23;99548.88;;;21.41;93.23
64675;BME280;51090;51.512;11.332;2022-10-16T14:21:51;99544.91;;;21.49;94.46
64675;BME280;51090;51.512;11.332;2022-10-16T14:24:33;99549.19;;;21.45;93.07
64675;BME280;51090;51.512;11.332;2022-10-16T14:27:00;99554.09;;;21.48;95.30
64675;BME280;51090;51.512;11.332;2022-10-16T14:29:27;99560.81;;;21.45;94.61
64675;BME280;51090;51.512;11.332;2022-10-16T14:32:24;99561.41;;;21.52;94.28
64675;BME280;51090;51.512;11.332;2022-10-16T14:34:53;99563.34;;;21.57;97.77
64675;BME280;51090;51.512;11.332;2022-10-16T14:37:27;99559.59;;;21.58;96.39
64675;BME280;51090;51.512;11.332;2022-10-16T14:39:54;99555.19;;;21.52;92.67
64675;BME280;51090;51.512;11.332;2022-10-16T14:42:22;99545.44;;;21.46;100.00
64675;BME280;51090;51.512;11.332;2022-10-16T14:44:52;99562.66;;;21.45;93.20
64675;BME280;51090;51.512;11.332;2022-10-16T14:47:20;99567.44;;;21.38;90.39
64675;BME280;51090;51.512;11.332;2022-10-16T14:49:53;99569.66;;;21.41;96.80
64675;BME280;51090;51.512;11.332;2022-10-16T14:52:21;99572.34;;;21.41;93.37
64675;BME280;51090;51.512;11.332;2022-10-16T14:57:21;99575.69;;;21.48;96.60
64675;BME280;51090;51.512;11.332;2022-10-16T14:59:47;99579.44;;;21.47;93.61
64675;BME280;51090;51.512;11.332;2022-10-16T15:02:18;99579.38;;;21.42;92.78
64675;BME280;51090;51.512;11.332;2022-10-16T15:04:46;99576.53;;;21.31;100.00